INFORMACIÓN METAR y TAF
METAR FOR ESNX
ADDS - METARS form results

(0619 UTC 14 August 2020)
Data provider http://aviationweather.gov/metar/data/
 
METAR text: ESNX 140550Z 30008KT CAVOK 15/12 Q1010
Conditions at: ESNX (ARVIDSJAUR , SE) observed 0550 UTC 14 August 2020
Temperature: 15.0°C (59°F)
Dewpoint: 12.0°C (54°F) [RH = 82%]
Pressure (altimeter): 29.82 inches Hg (1010.0 mb)
Winds: from the WNW (300 degrees) at 9 MPH (8 knots; 4.1 m/s)
Visibility: 6 or more miles (10+ km)
Ceiling: ceiling and visibility are OK
Clouds: unknown
Weather: no significant weather observed at this time

METAR text: ESNX 140520Z 28010KT CAVOK 15/12 Q1010
Conditions at: ESNX (ARVIDSJAUR , SE) observed 0520 UTC 14 August 2020
Temperature: 15.0°C (59°F)
Dewpoint: 12.0°C (54°F) [RH = 82%]
Pressure (altimeter): 29.82 inches Hg (1010.0 mb)
Winds: from the W (280 degrees) at 12 MPH (10 knots; 5.1 m/s)
Visibility: 6 or more miles (10+ km)
Ceiling: ceiling and visibility are OK
Clouds: unknown
Weather: no significant weather observed at this time

Forecast for: ESNX (ARVIDSJAUR , SE)
Text: TAF ESNX 140430Z 1405/1407 28005KT CAVOK
Forecast period: 0500 to 0700 UTC 14 August 2020
Forecast type: FROM: standard forecast or significant change
Winds: from the W (280 degrees) at 6 MPH (5 knots; 2.6 m/s)
Visibility: 6 or more miles (10+ km)
Ceiling: unknown
Clouds: missing
Weather: NSW  (no significant weather)

 MAPA DE AEROPUERTO

 INFORMACIÓN DE PISTA
Pista 12 Longitud 8201 ft Ancho 148 ft
Elevación 1241 ft Umbral desplazado 0 ft Rumbo de pista 128
Pista 30 Longitud 8201 ft Ancho 148 ft
Elevación 1240 ft Umbral desplazado 0 ft Rumbo de pista 308

 FRECUANCIAS DEL AEROPUERTO
Tipo AFIS Nombre AFIS Frecuencia 123 MHZ
Tipo TWR Nombre TWR Frecuencia 123 MHZ

 RADIO AYUDAS DEL AEROPUERTO
Tipo NDB Nombre Arvidsjaur Frecuencia 381 KHZ



Powered by Virtual Airlines Manager [v2.6.2]